M I D A S
Marine Information and Data Acquisition System
Tripno 1297 of the Zeeleeuw from 2007-07-03 06:32:08 to 2007-07-03 15:22:59
Back to CruiseResearch ActivitiesStationsMapUnderway DataData graphs

EquipmentUnitsComment
TimeDGPSUTC
LatitudeDGPSDM.mWGS84
LongitudeDGPSDM.mWGS84
HeadingGyrodeg 
SOGDGPSknotsSpeed over ground
COGDGPSdegCourse over ground
DepthEcho soundermeters200 kHz
Missing or incorrect values are displayed as -999
Navigation data collected by the RV Zeeleeuw from 2007-07-03 06:30:31 to 2007-07-03 15:33:31
                                                                                    Next 1000 lines
Time Latitude Longitude Heading SOG COG Depth
2007-07-03 06:30:41 51°13.597 2°56.092 112.8 1 289 7.9
2007-07-03 06:30:46 51°13.598 2°56.089 112.5 1.4 294 7.9
2007-07-03 06:30:51 51°13.599 2°56.086 112.6 1.7 293 8
2007-07-03 06:30:56 51°13.6 2°56.082 113.3 2 295 6.8
2007-07-03 06:31:01 51°13.602 2°56.077 114.5 2.3 294 -999
2007-07-03 06:31:07 51°13.603 2°56.07 115.5 2.7 296 -999
2007-07-03 06:31:13 51°13.606 2°56.063 116.2 3 295 -999
2007-07-03 06:31:18 51°13.608 2°56.057 116.6 3.3 296 -999
2007-07-03 06:31:24 51°13.61 2°56.048 117 3.6 295 -999
2007-07-03 06:31:29 51°13.613 2°56.041 117.4 3.8 296 -999
2007-07-03 06:31:34 51°13.615 2°56.032 117.9 4.1 295 -999
2007-07-03 06:31:40 51°13.618 2°56.022 118.9 4.4 297 -999
2007-07-03 06:31:45 51°13.621 2°56.013 119.9 4.6 297 -999
2007-07-03 06:31:49 51°13.624 2°56.005 120.8 4.9 298 -999
2007-07-03 06:31:54 51°13.627 2°55.996 121.8 5 299 -999
2007-07-03 06:31:59 51°13.631 2°55.986 122.6 5.2 300 -999
2007-07-03 06:32:05 51°13.635 2°55.974 123.8 5.4 302 -999
2007-07-03 06:32:09 51°13.639 2°55.965 124.8 5.5 302 -999
2007-07-03 06:32:14 51°13.643 2°55.955 125.2 5.6 303 -999
2007-07-03 06:32:19 51°13.647 2°55.945 125.2 5.5 303 -999
2007-07-03 06:32:25 51°13.652 2°55.933 124.7 5.2 303 -999
2007-07-03 06:32:29 51°13.655 2°55.926 124.1 5 303 -999
2007-07-03 06:32:34 51°13.658 2°55.917 123.3 4.8 302 -999
2007-07-03 06:32:39 51°13.662 2°55.908 122.1 4.6 302 -999
2007-07-03 06:32:44 51°13.665 2°55.9 120.5 4.4 301 -999
2007-07-03 06:32:49 51°13.668 2°55.892 118.7 4.2 300 5.6
2007-07-03 06:32:54 51°13.671 2°55.885 117.1 4 299 4.8
2007-07-03 06:32:59 51°13.674 2°55.877 115.8 3.8 297 -999
2007-07-03 06:33:04 51°13.676 2°55.87 113.6 3.7 296 4.8
2007-07-03 06:33:09 51°13.678 2°55.862 111.3 3.5 294 10.3
2007-07-03 06:33:13 51°13.679 2°55.857 108.9 3.4 293 10.4
2007-07-03 06:33:18 51°13.681 2°55.85 107.1 3.3 290 10.3
2007-07-03 06:33:23 51°13.682 2°55.844 104.6 3.2 290 10.5
2007-07-03 06:33:28 51°13.683 2°55.837 101.6 3 286 10.6
2007-07-03 06:33:33 51°13.685 2°55.831 99.2 2.9 286 10.6
2007-07-03 06:33:38 51°13.686 2°55.825 96.8 2.8 283 10.5
2007-07-03 06:33:42 51°13.686 2°55.82 95 2.7 282 10.4
2007-07-03 06:33:47 51°13.687 2°55.815 92.8 2.6 280 10.4
2007-07-03 06:33:52 51°13.687 2°55.809 90.9 2.5 278 10.4
2007-07-03 06:33:57 51°13.688 2°55.804 88.9 2.4 276 10.5
2007-07-03 06:34:02 51°13.688 2°55.799 87 2.3 275 10.6
2007-07-03 06:34:06 51°13.688 2°55.794 85.1 2.2 274 10.7
2007-07-03 06:34:11 51°13.688 2°55.79 83.4 2.2 273 10.9
2007-07-03 06:34:16 51°13.688 2°55.785 81.5 2.1 270 10.9
2007-07-03 06:34:21 51°13.688 2°55.781 79.7 2 269 10.8
2007-07-03 06:34:26 51°13.688 2°55.776 77.6 1.9 268 10.8
2007-07-03 06:34:31 51°13.688 2°55.772 76.3 1.9 266 10.9
2007-07-03 06:34:36 51°13.687 2°55.768 74.7 1.8 266 10.8
2007-07-03 06:34:41 51°13.687 2°55.764 73.3 1.8 265 10.8
2007-07-03 06:34:46 51°13.687 2°55.76 71.5 1.7 265 10.7
2007-07-03 06:34:51 51°13.687 2°55.756 70.3 1.6 263 10.5
2007-07-03 06:34:56 51°13.686 2°55.753 68.9 1.6 262 10.4
2007-07-03 06:35:01 51°13.686 2°55.749 67.5 1.5 260 10.5
2007-07-03 06:35:06 51°13.686 2°55.746 66.4 1.5 260 10.4
2007-07-03 06:35:11 51°13.685 2°55.743 65.3 1.4 259 10.5
2007-07-03 06:35:16 51°13.685 2°55.74 64.3 1.4 258 10.4
2007-07-03 06:35:21 51°13.684 2°55.737 63.1 1.3 257 10.5
2007-07-03 06:35:26 51°13.684 2°55.735 61.8 1.3 257 10.6
2007-07-03 06:35:31 51°13.684 2°55.732 60.6 1.2 258 10.4
2007-07-03 06:35:36 51°13.684 2°55.73 59.3 0.9 263 10.4
2007-07-03 06:35:41 51°13.684 2°55.729 57.4 0.5 284 10.4
2007-07-03 06:35:46 51°13.684 2°55.729 54.3 0.5 348 10.4
2007-07-03 06:35:51 51°13.686 2°55.729 49.6 0.8 14 10.4
2007-07-03 06:35:56 51°13.687 2°55.73 43.8 1.2 19 10.5
2007-07-03 06:36:01 51°13.689 2°55.731 37.6 1.6 17 10.6
2007-07-03 06:36:06 51°13.692 2°55.732 31 2.1 16 10.8
2007-07-03 06:36:10 51°13.695 2°55.733 23.9 2.6 9 11
2007-07-03 06:36:16 51°13.7 2°55.734 15.9 3.1 1 11.4
2007-07-03 06:36:21 51°13.705 2°55.733 7.3 3.5 354 11.5
2007-07-03 06:36:26 51°13.71 2°55.731 358.6 4 347 11.6
2007-07-03 06:36:31 51°13.716 2°55.727 350 4.5 339 12
2007-07-03 06:36:36 51°13.722 2°55.722 343.3 4.9 336 11.6
2007-07-03 06:36:41 51°13.729 2°55.717 339.3 5.3 334 11.2
2007-07-03 06:36:46 51°13.736 2°55.711 337 5.6 333 11
2007-07-03 06:36:51 51°13.743 2°55.705 336.1 6 332 11
2007-07-03 06:36:56 51°13.751 2°55.698 336 6.2 332 10.9
2007-07-03 06:37:01 51°13.759 2°55.692 336.7 6.5 333 10.8
2007-07-03 06:37:06 51°13.767 2°55.685 337 6.8 333 10.8
2007-07-03 06:37:11 51°13.776 2°55.677 337 7 333 10.8
2007-07-03 06:37:16 51°13.785 2°55.671 337.1 7.1 334 10.8
2007-07-03 06:37:21 51°13.794 2°55.663 337.9 7.3 334 10.8
2007-07-03 06:37:26 51°13.803 2°55.656 338.2 7.4 334 10.7
2007-07-03 06:37:31 51°13.812 2°55.649 338.2 7.5 335 10.8
2007-07-03 06:37:36 51°13.822 2°55.642 338.6 7.6 335 10.8
2007-07-03 06:37:41 51°13.832 2°55.635 339.4 7.7 336 10.8
2007-07-03 06:37:46 51°13.841 2°55.628 339.7 7.8 335 10.7
2007-07-03 06:37:51 51°13.851 2°55.621 339.3 7.9 336 10.5
2007-07-03 06:37:56 51°13.861 2°55.614 339.3 8 336 10.5
2007-07-03 06:38:01 51°13.872 2°55.607 339.6 8 337 10.5
2007-07-03 06:38:06 51°13.882 2°55.6 339.8 8.1 336 10.5
2007-07-03 06:38:10 51°13.89 2°55.594 339.6 8.1 336 10.5
2007-07-03 06:38:16 51°13.902 2°55.585 339.6 8.2 336 10.7
2007-07-03 06:38:21 51°13.913 2°55.577 339.6 8.2 336 10.6
2007-07-03 06:38:26 51°13.923 2°55.57 339.6 8.3 335 10.8
2007-07-03 06:38:31 51°13.934 2°55.562 339.4 8.3 336 10.6
2007-07-03 06:38:36 51°13.944 2°55.555 339.8 8.3 336 10.6
2007-07-03 06:38:41 51°13.955 2°55.547 340 8.3 336 10.6
2007-07-03 06:38:46 51°13.966 2°55.539 339.2 8.3 336 10.5
2007-07-03 06:38:51 51°13.976 2°55.532 338.9 8.4 336 10.5
2007-07-03 06:38:56 51°13.987 2°55.524 339 8.5 336 -999
2007-07-03 06:39:01 51°13.998 2°55.516 339 8.7 335 10.4
2007-07-03 06:39:06 51°14.009 2°55.508 338.8 8.9 336 10.3
2007-07-03 06:39:11 51°14.02 2°55.499 338.8 9 335 10.2
2007-07-03 06:39:16 51°14.032 2°55.491 338.8 9.1 335 10.1
2007-07-03 06:39:21 51°14.043 2°55.482 338.9 9.1 335 10.2
2007-07-03 06:39:26 51°14.055 2°55.474 338.9 9.2 335 10.2
2007-07-03 06:39:31 51°14.067 2°55.465 338.8 9.3 334 10.2
2007-07-03 06:39:36 51°14.078 2°55.456 338.8 9.4 335 10.2
2007-07-03 06:39:41 51°14.09 2°55.447 338.6 9.5 334 10.1
2007-07-03 06:39:46 51°14.102 2°55.437 338.1 9.6 334 10.2
2007-07-03 06:39:51 51°14.114 2°55.428 337.5 9.7 333 10.2
2007-07-03 06:39:56 51°14.126 2°55.418 336.7 9.8 333 10.1
2007-07-03 06:40:01 51°14.138 2°55.408 336.7 9.9 333 -999
2007-07-03 06:40:06 51°14.151 2°55.397 336.2 10 331 10.2
2007-07-03 06:40:11 51°14.163 2°55.386 335.1 10.1 330 10.2
2007-07-03 06:40:16 51°14.175 2°55.374 333.7 10.2 328 10.2
2007-07-03 06:40:21 51°14.187 2°55.362 332.1 10.4 327 10.2
2007-07-03 06:40:26 51°14.199 2°55.348 330.7 10.6 325 10.2
2007-07-03 06:40:31 51°14.211 2°55.334 329 10.8 324 10.2
2007-07-03 06:40:36 51°14.223 2°55.32 327.1 10.9 322 10.2
2007-07-03 06:40:41 51°14.235 2°55.303 324.7 11.1 319 10.2
2007-07-03 06:40:46 51°14.246 2°55.287 322.9 11.2 318 10.2
2007-07-03 06:40:51 51°14.257 2°55.269 321.8 11.3 316 10.2
2007-07-03 06:40:56 51°14.268 2°55.251 319.8 11.3 314 10.2
2007-07-03 06:41:01 51°14.279 2°55.233 318.3 11.3 314 10.2
2007-07-03 06:41:06 51°14.289 2°55.214 317.6 11.4 313 10.2
2007-07-03 06:41:11 51°14.3 2°55.196 316.6 11.4 312 10.3
2007-07-03 06:41:16 51°14.311 2°55.177 315.7 11.5 310 10.3
2007-07-03 06:41:21 51°14.321 2°55.156 313.9 11.7 308 10.3
2007-07-03 06:41:26 51°14.331 2°55.136 312.5 11.7 308 10.2
2007-07-03 06:41:31 51°14.34 2°55.115 311.5 11.8 307 10.5
2007-07-03 06:41:36 51°14.35 2°55.094 311.4 11.8 307 10.3
2007-07-03 06:41:41 51°14.36 2°55.072 310.7 11.9 305 10.3
2007-07-03 06:41:46 51°14.369 2°55.051 309.6 12 304 10.3
2007-07-03 06:41:51 51°14.378 2°55.028 307.7 12.2 301 10.1
2007-07-03 06:41:56 51°14.386 2°55.003 304.5 12.3 297 10
2007-07-03 06:42:01 51°14.392 2°54.978 300.4 12.5 292 10.2
2007-07-03 06:42:06 51°14.398 2°54.951 295.8 12.7 288 10.1
2007-07-03 06:42:11 51°14.403 2°54.924 292.5 12.8 286 10.2
2007-07-03 06:42:16 51°14.407 2°54.896 290.1 13 284 10.2
2007-07-03 06:42:21 51°14.411 2°54.868 288.2 13 283 10.2
2007-07-03 06:42:26 51°14.415 2°54.839 286.7 13.2 281 10.4
2007-07-03 06:42:31 51°14.418 2°54.81 285.3 13.3 280 10.3
2007-07-03 06:42:36 51°14.421 2°54.781 284.1 13.4 278 10.5
2007-07-03 06:42:41 51°14.423 2°54.752 282.4 13.4 277 10.2
2007-07-03 06:42:46 51°14.424 2°54.722 280.9 13.4 275 10.1
2007-07-03 06:42:51 51°14.425 2°54.692 279.2 13.4 273 10.4
2007-07-03 06:42:56 51°14.426 2°54.663 277.2 13.4 271 10.4
2007-07-03 06:43:01 51°14.425 2°54.633 274.7 13.4 269 10.3
2007-07-03 06:43:06 51°14.424 2°54.603 272.1 13.4 265 10.3
2007-07-03 06:43:11 51°14.421 2°54.574 269 13.4 263 10.1
2007-07-03 06:43:16 51°14.418 2°54.544 266.3 13.5 261 10.2
2007-07-03 06:43:21 51°14.415 2°54.515 263.5 13.5 258 10.3
2007-07-03 06:43:26 51°14.41 2°54.486 260.6 13.4 255 9.8
2007-07-03 06:43:30 51°14.405 2°54.464 257.5 13.3 252 9.2
2007-07-03 06:43:36 51°14.397 2°54.431 254 13.3 248 9
2007-07-03 06:43:41 51°14.389 2°54.405 250.8 13.3 245 8.8
2007-07-03 06:43:46 51°14.382 2°54.378 248.3 13.3 244 8.9
2007-07-03 06:43:51 51°14.373 2°54.352 246.9 13.2 242 8.5
2007-07-03 06:43:56 51°14.364 2°54.326 244.7 13.3 242 8.6
2007-07-03 06:44:01 51°14.355 2°54.3 243.7 13.3 241 8.5
2007-07-03 06:44:06 51°14.346 2°54.275 242.9 13.4 239 8.6
2007-07-03 06:44:11 51°14.337 2°54.249 242.2 13.4 240 8.3
2007-07-03 06:44:16 51°14.327 2°54.224 241.4 13.5 240 8.5
2007-07-03 06:44:21 51°14.318 2°54.198 241.7 13.4 240 8.4
2007-07-03 06:44:26 51°14.308 2°54.173 241.7 13.4 240 8.5
2007-07-03 06:44:31 51°14.299 2°54.147 242.1 13.5 240 8.4
2007-07-03 06:44:36 51°14.29 2°54.121 242 13.5 240 8.4
2007-07-03 06:44:41 51°14.281 2°54.095 241.9 13.5 240 8.3
2007-07-03 06:44:46 51°14.271 2°54.069 242.1 13.5 240 8.4
2007-07-03 06:44:51 51°14.262 2°54.043 242.3 13.6 240 8.5
2007-07-03 06:44:56 51°14.252 2°54.018 242.3 13.6 240 8.3
2007-07-03 06:45:01 51°14.243 2°53.991 242.3 13.6 241 8.4
2007-07-03 06:45:06 51°14.234 2°53.965 242.5 13.6 241 8.3
2007-07-03 06:45:11 51°14.225 2°53.939 243 13.7 241 8.3
2007-07-03 06:45:16 51°14.215 2°53.913 243.1 13.7 241 8.5
2007-07-03 06:45:21 51°14.206 2°53.887 243.1 13.6 241 8.4
2007-07-03 06:45:26 51°14.197 2°53.861 243 13.6 240 8.5
2007-07-03 06:45:31 51°14.188 2°53.834 242.9 13.6 241 8.4
2007-07-03 06:45:36 51°14.178 2°53.808 243 13.6 240 8.5
2007-07-03 06:45:41 51°14.169 2°53.781 242.4 13.7 239 8.5
2007-07-03 06:45:46 51°14.159 2°53.756 241.9 13.7 239 8.5
2007-07-03 06:45:51 51°14.149 2°53.73 241.7 13.6 239 8.5
2007-07-03 06:45:56 51°14.139 2°53.704 241.4 13.7 239 8.5
2007-07-03 06:46:01 51°14.13 2°53.678 241.3 13.7 239 8.6
2007-07-03 06:46:06 51°14.12 2°53.652 241.7 13.7 240 8.6
2007-07-03 06:46:11 51°14.111 2°53.626 242.3 13.7 241 8.6
2007-07-03 06:46:16 51°14.102 2°53.599 242.8 13.6 241 8.6
2007-07-03 06:46:21 51°14.092 2°53.573 242.8 13.7 241 8.7
2007-07-03 06:46:26 51°14.083 2°53.547 243.2 13.7 241 8.5
2007-07-03 06:46:31 51°14.074 2°53.52 243.3 13.6 241 8.6
2007-07-03 06:46:36 51°14.065 2°53.493 243.5 13.7 241 8.6
2007-07-03 06:46:41 51°14.056 2°53.467 243.7 13.7 242 8.8
2007-07-03 06:46:46 51°14.047 2°53.44 244.1 13.7 241 8.8
2007-07-03 06:46:51 51°14.038 2°53.414 243.9 13.6 242 8.7
2007-07-03 06:46:56 51°14.029 2°53.387 244.2 13.6 242 8.7
2007-07-03 06:47:01 51°14.02 2°53.361 243.8 13.7 241 8.8
2007-07-03 06:47:06 51°14.01 2°53.334 243.5 13.7 240 8.9
2007-07-03 06:47:11 51°14.001 2°53.308 242.8 13.7 240 8.8
2007-07-03 06:47:16 51°13.991 2°53.282 241.9 13.6 240 9
2007-07-03 06:47:21 51°13.981 2°53.256 241.6 13.7 239 8.7
2007-07-03 06:47:26 51°13.972 2°53.23 241.4 13.7 239 9
2007-07-03 06:47:30 51°13.964 2°53.21 241.6 13.7 239 9
2007-07-03 06:47:36 51°13.953 2°53.178 242.3 13.6 240 9.1
2007-07-03 06:47:41 51°13.943 2°53.152 242.5 13.6 240 8.9
2007-07-03 06:47:46 51°13.935 2°53.125 242.7 13.7 242 9
2007-07-03 06:47:51 51°13.925 2°53.099 243.5 13.7 241 9
2007-07-03 06:47:56 51°13.916 2°53.072 243.9 13.6 242 9.1
2007-07-03 06:48:01 51°13.907 2°53.046 244.2 13.6 241 9.1
2007-07-03 06:48:06 51°13.898 2°53.019 243.9 13.6 242 9.1
2007-07-03 06:48:11 51°13.889 2°52.993 243.9 13.6 241 9.1
2007-07-03 06:48:16 51°13.88 2°52.966 243.3 13.7 242 9.2
2007-07-03 06:48:21 51°13.871 2°52.94 243 13.6 240 9.2
2007-07-03 06:48:26 51°13.862 2°52.914 242.6 13.7 242 9.2
2007-07-03 06:48:31 51°13.852 2°52.887 242.7 13.6 240 9.3
2007-07-03 06:48:36 51°13.843 2°52.861 242.8 13.7 241 9.1
2007-07-03 06:48:41 51°13.834 2°52.835 242.6 13.7 240 9.2
2007-07-03 06:48:46 51°13.824 2°52.809 242.5 13.7 240 9.2
2007-07-03 06:48:51 51°13.815 2°52.783 242.1 13.6 239 9.3
2007-07-03 06:48:56 51°13.805 2°52.757 241.7 13.7 239 9.3
2007-07-03 06:49:01 51°13.795 2°52.731 241.4 13.7 240 9.2
2007-07-03 06:49:06 51°13.785 2°52.706 241.5 13.7 240 9.2
2007-07-03 06:49:11 51°13.776 2°52.679 242 13.7 240 9.4
2007-07-03 06:49:16 51°13.767 2°52.653 242.4 13.7 240 9.3
2007-07-03 06:49:21 51°13.757 2°52.627 242.7 13.6 241 9.4
2007-07-03 06:49:26 51°13.748 2°52.601 243.1 13.6 241 9.3
2007-07-03 06:49:30 51°13.741 2°52.58 243.1 13.6 241 9.3
2007-07-03 06:49:36 51°13.73 2°52.548 243.1 13.6 240 9.3
2007-07-03 06:49:41 51°13.72 2°52.523 242.5 13.6 240 9.3
2007-07-03 06:49:46 51°13.711 2°52.497 242.4 13.6 240 9.4
2007-07-03 06:49:50 51°13.703 2°52.476 242.4 13.6 240 9.4
2007-07-03 06:49:56 51°13.692 2°52.444 242.7 13.6 240 9.5
2007-07-03 06:50:01 51°13.682 2°52.419 242.5 13.6 240 9.5
2007-07-03 06:50:06 51°13.673 2°52.392 242.4 13.7 241 9.5
2007-07-03 06:50:11 51°13.664 2°52.366 242.7 13.6 241 9.6
2007-07-03 06:50:16 51°13.654 2°52.34 243 13.6 241 9.3
2007-07-03 06:50:21 51°13.645 2°52.314 243.1 13.5 240 9.4
2007-07-03 06:50:26 51°13.636 2°52.288 242.7 13.6 240 9.5
2007-07-03 06:50:31 51°13.626 2°52.262 242.6 13.6 240 9.5
2007-07-03 06:50:36 51°13.617 2°52.236 242.7 13.6 240 9.5
2007-07-03 06:50:41 51°13.608 2°52.209 243.1 13.6 241 9.4
2007-07-03 06:50:46 51°13.598 2°52.183 243.6 13.6 240 9.6
2007-07-03 06:50:51 51°13.59 2°52.157 243.4 13.6 241 9.6
2007-07-03 06:50:56 51°13.58 2°52.131 243.6 13.6 241 9.3
2007-07-03 06:51:01 51°13.571 2°52.104 243.3 13.6 241 9.5
2007-07-03 06:51:06 51°13.562 2°52.078 243.3 13.6 240 9.5
2007-07-03 06:51:11 51°13.553 2°52.052 243.1 13.6 240 9.5
2007-07-03 06:51:16 51°13.543 2°52.026 242.8 13.5 240 9.6
2007-07-03 06:51:21 51°13.534 2°52 242.5 13.6 240 9.6
2007-07-03 06:51:26 51°13.524 2°51.974 242.4 13.6 241 9.7
2007-07-03 06:51:31 51°13.515 2°51.948 242.8 13.6 240 9.4
2007-07-03 06:51:36 51°13.506 2°51.922 242.6 13.6 241 9.7
2007-07-03 06:51:41 51°13.496 2°51.896 242.9 13.6 240 9.7
2007-07-03 06:51:46 51°13.487 2°51.869 243 13.6 240 9.7
2007-07-03 06:51:51 51°13.478 2°51.843 242.9 13.6 240 9.7
2007-07-03 06:51:56 51°13.469 2°51.817 242.9 13.6 241 9.6
2007-07-03 06:52:01 51°13.459 2°51.791 243 13.6 240 9.7
2007-07-03 06:52:06 51°13.45 2°51.765 243.1 13.6 240 9.6
2007-07-03 06:52:11 51°13.441 2°51.738 243.1 13.7 241 9.8
2007-07-03 06:52:16 51°13.431 2°51.712 243.1 13.6 240 9.8
2007-07-03 06:52:21 51°13.422 2°51.686 243 13.6 241 9.7
2007-07-03 06:52:26 51°13.413 2°51.66 242.9 13.6 241 9.7
2007-07-03 06:52:31 51°13.404 2°51.633 243.1 13.7 241 9.6
2007-07-03 06:52:36 51°13.394 2°51.607 243.1 13.6 240 9.6
2007-07-03 06:52:41 51°13.385 2°51.581 242.9 13.6 240 9.5
2007-07-03 06:52:46 51°13.375 2°51.555 242.6 13.7 240 9.7
2007-07-03 06:52:51 51°13.366 2°51.529 242.7 13.6 240 9.7
2007-07-03 06:52:56 51°13.357 2°51.503 242.7 13.6 240 9.5
2007-07-03 06:53:01 51°13.348 2°51.477 242.7 13.6 241 9.6
2007-07-03 06:53:06 51°13.339 2°51.45 243.2 13.6 241 9.8
2007-07-03 06:53:11 51°13.329 2°51.424 243.6 13.6 241 9.7
2007-07-03 06:53:16 51°13.32 2°51.398 243.6 13.6 240 9.8
2007-07-03 06:53:21 51°13.31 2°51.372 243 13.6 239 9.7
2007-07-03 06:53:26 51°13.301 2°51.347 241.7 13.6 239 9.7
2007-07-03 06:53:31 51°13.291 2°51.321 241.3 13.6 238 9.7
2007-07-03 06:53:36 51°13.281 2°51.296 240.6 13.5 238 9.8
2007-07-03 06:53:41 51°13.271 2°51.271 240.2 13.5 237 9.6
2007-07-03 06:53:46 51°13.261 2°51.245 239.9 13.5 238 9.6
2007-07-03 06:53:51 51°13.251 2°51.22 239.9 13.6 237 9.8
2007-07-03 06:53:56 51°13.241 2°51.194 239.9 13.5 238 9.6
2007-07-03 06:54:01 51°13.23 2°51.17 239.8 13.4 237 9.7
2007-07-03 06:54:06 51°13.22 2°51.144 239.4 13.5 238 9.6
2007-07-03 06:54:11 51°13.21 2°51.119 239.5 13.5 237 9.6
2007-07-03 06:54:16 51°13.2 2°51.094 239.7 13.5 238 9.7
2007-07-03 06:54:21 51°13.19 2°51.069 239.9 13.5 238 9.8
2007-07-03 06:54:26 51°13.18 2°51.044 240.4 13.5 239 9.6
2007-07-03 06:54:31 51°13.17 2°51.018 240.2 13.5 238 9.6
2007-07-03 06:54:36 51°13.161 2°50.993 240.7 13.5 239 9.9
2007-07-03 06:54:41 51°13.151 2°50.967 240.8 13.4 238 9.7
2007-07-03 06:54:46 51°13.141 2°50.942 240.7 13.5 238 9.8
2007-07-03 06:54:51 51°13.131 2°50.917 240.3 13.5 238 9.8
2007-07-03 06:54:56 51°13.121 2°50.891 240.4 13.5 239 9.8
2007-07-03 06:55:01 51°13.111 2°50.866 240.8 13.5 238 9.8
2007-07-03 06:55:06 51°13.101 2°50.84 240.6 13.5 239 9.7
2007-07-03 06:55:11 51°13.091 2°50.815 240.8 13.6 238 9.8
2007-07-03 06:55:16 51°13.082 2°50.789 240.9 13.5 238 9.9
2007-07-03 06:55:21 51°13.072 2°50.764 240.8 13.5 238 9.8
2007-07-03 06:55:26 51°13.062 2°50.738 240.8 13.6 238 9.7
2007-07-03 06:55:31 51°13.052 2°50.713 240.5 13.5 238 9.8
2007-07-03 06:55:36 51°13.042 2°50.688 240.2 13.5 237 9.9
2007-07-03 06:55:41 51°13.032 2°50.663 239.7 13.5 237 9.8
2007-07-03 06:55:46 51°13.021 2°50.638 239.1 13.6 237 9.7
2007-07-03 06:55:51 51°13.011 2°50.613 239.6 13.5 237 9.8
2007-07-03 06:55:56 51°13.001 2°50.588 239.6 13.5 238 9.7
2007-07-03 06:56:01 51°12.991 2°50.562 239.5 13.5 237 9.6
2007-07-03 06:56:06 51°12.981 2°50.537 239.9 13.6 238 9.8
2007-07-03 06:56:11 51°12.971 2°50.512 240.3 13.5 238 9.7
2007-07-03 06:56:16 51°12.962 2°50.486 240.6 13.6 239 9.8
2007-07-03 06:56:21 51°12.952 2°50.46 240.9 13.5 238 9.8
2007-07-03 06:56:26 51°12.942 2°50.434 240.9 13.6 239 9.8
2007-07-03 06:56:31 51°12.932 2°50.409 240.9 13.6 239 9.7
2007-07-03 06:56:36 51°12.922 2°50.384 240.9 13.5 238 9.7
2007-07-03 06:56:41 51°12.912 2°50.358 240.2 13.6 238 9.7
2007-07-03 06:56:46 51°12.902 2°50.333 240.4 13.6 238 9.7
2007-07-03 06:56:51 51°12.892 2°50.307 240.4 13.6 239 9.8
2007-07-03 06:56:56 51°12.882 2°50.282 240.6 13.5 237 9.6
2007-07-03 06:57:01 51°12.872 2°50.256 240 13.6 238 9.8
2007-07-03 06:57:06 51°12.862 2°50.231 240.2 13.6 238 9.7
2007-07-03 06:57:11 51°12.852 2°50.206 240.5 13.5 238 9.8
2007-07-03 06:57:16 51°12.843 2°50.181 240.2 13.5 238 9.7
2007-07-03 06:57:21 51°12.833 2°50.155 240.2 13.5 238 9.7
2007-07-03 06:57:26 51°12.822 2°50.13 240.2 13.6 238 9.9
2007-07-03 06:57:31 51°12.812 2°50.105 240.2 13.5 238 9.8
2007-07-03 06:57:36 51°12.802 2°50.08 239.8 13.5 238 9.7
2007-07-03 06:57:41 51°12.792 2°50.055 239.8 13.5 238 9.7
2007-07-03 06:57:46 51°12.782 2°50.029 239.9 13.5 238 9.8
2007-07-03 06:57:51 51°12.772 2°50.004 240.1 13.6 238 9.8
2007-07-03 06:57:56 51°12.763 2°49.978 240.5 13.5 239 9.7
2007-07-03 06:58:01 51°12.753 2°49.953 240.6 13.5 238 9.7
2007-07-03 06:58:06 51°12.743 2°49.927 240.5 13.5 239 9.7
2007-07-03 06:58:11 51°12.733 2°49.902 240.7 13.6 238 9.8
2007-07-03 06:58:16 51°12.723 2°49.877 240.2 13.5 238 9.7
2007-07-03 06:58:21 51°12.713 2°49.852 239.8 13.5 237 9.8
2007-07-03 06:58:26 51°12.703 2°49.827 239.4 13.5 237 9.7
2007-07-03 06:58:31 51°12.692 2°49.801 239.4 13.6 238 9.8
2007-07-03 06:58:36 51°12.682 2°49.776 239.8 13.5 237 9.7
2007-07-03 06:58:41 51°12.672 2°49.751 239.8 13.5 238 9.7
2007-07-03 06:58:46 51°12.663 2°49.725 240 13.5 238 9.7
2007-07-03 06:58:51 51°12.653 2°49.7 240.2 13.6 239 9.6
2007-07-03 06:58:56 51°12.643 2°49.674 241.2 13.6 240 9.8
2007-07-03 06:59:01 51°12.634 2°49.648 241.6 13.6 240 9.8
2007-07-03 06:59:06 51°12.625 2°49.622 242.4 13.6 241 9.8
2007-07-03 06:59:11 51°12.615 2°49.596 242.8 13.6 240 9.8
2007-07-03 06:59:16 51°12.606 2°49.569 242.9 13.6 241 9.8
2007-07-03 06:59:21 51°12.597 2°49.543 243 13.6 241 9.8
2007-07-03 06:59:26 51°12.587 2°49.518 242.8 13.6 240 9.8
2007-07-03 06:59:31 51°12.578 2°49.491 242.7 13.6 240 9.7
2007-07-03 06:59:36 51°12.569 2°49.465 242.7 13.6 240 9.8
2007-07-03 06:59:41 51°12.56 2°49.439 242.7 13.6 241 9.8
2007-07-03 06:59:46 51°12.551 2°49.413 242.9 13.5 240 9.7
2007-07-03 06:59:51 51°12.541 2°49.387 242.6 13.6 240 9.9
2007-07-03 06:59:56 51°12.532 2°49.361 242.5 13.6 240 9.7
2007-07-03 07:00:01 51°12.522 2°49.335 242.2 13.6 240 9.7
2007-07-03 07:00:06 51°12.513 2°49.309 242.3 13.6 240 9.7
2007-07-03 07:00:11 51°12.504 2°49.284 242.1 13.5 240 9.7
2007-07-03 07:00:16 51°12.494 2°49.258 241.6 13.6 239 9.7
2007-07-03 07:00:21 51°12.484 2°49.232 241.6 13.6 239 9.7
2007-07-03 07:00:26 51°12.475 2°49.207 241.6 13.4 239 9.7
2007-07-03 07:00:31 51°12.465 2°49.181 241.3 13.5 239 9.7
2007-07-03 07:00:36 51°12.456 2°49.155 241.8 13.5 240 9.6
2007-07-03 07:00:41 51°12.446 2°49.129 242 13.5 240 9.7
2007-07-03 07:00:46 51°12.437 2°49.103 242.7 13.5 241 9.7
2007-07-03 07:00:51 51°12.428 2°49.077 242.8 13.5 240 9.6
2007-07-03 07:00:56 51°12.419 2°49.051 242.5 13.5 240 9.8
2007-07-03 07:01:01 51°12.409 2°49.026 242.5 13.6 240 9.7
2007-07-03 07:01:06 51°12.4 2°48.999 242.5 13.5 240 9.8
2007-07-03 07:01:11 51°12.391 2°48.974 242.4 13.5 240 9.8
2007-07-03 07:01:16 51°12.382 2°48.948 242.5 13.5 240 9.8
2007-07-03 07:01:21 51°12.372 2°48.922 242.5 13.6 241 9.6
2007-07-03 07:01:26 51°12.363 2°48.896 242.6 13.6 240 9.8
2007-07-03 07:01:31 51°12.354 2°48.87 242.6 13.5 241 9.7
2007-07-03 07:01:36 51°12.344 2°48.844 242.7 13.5 240 9.7
2007-07-03 07:01:41 51°12.335 2°48.818 242.8 13.6 241 9.8
2007-07-03 07:01:46 51°12.326 2°48.791 242.9 13.6 241 9.7
2007-07-03 07:01:51 51°12.317 2°48.765 243.1 13.6 241 9.7
2007-07-03 07:01:56 51°12.308 2°48.739 243 13.5 240 9.8
2007-07-03 07:02:01 51°12.298 2°48.713 242.5 13.5 239 9.7
2007-07-03 07:02:06 51°12.289 2°48.687 241.9 13.5 240 9.7
2007-07-03 07:02:11 51°12.279 2°48.662 241.8 13.5 239 9.7
2007-07-03 07:02:16 51°12.27 2°48.636 241.6 13.5 240 9.8
2007-07-03 07:02:21 51°12.261 2°48.61 241.7 13.5 240 9.7
2007-07-03 07:02:26 51°12.252 2°48.583 242.6 13.6 242 9.8
2007-07-03 07:02:31 51°12.244 2°48.557 244.4 13.5 244 9.7
2007-07-03 07:02:36 51°12.236 2°48.53 246.4 13.5 245 9.8
2007-07-03 07:02:41 51°12.229 2°48.502 248.2 13.5 247 9.7
2007-07-03 07:02:46 51°12.222 2°48.474 250.1 13.5 248 9.8
2007-07-03 07:02:51 51°12.215 2°48.447 251.1 13.5 249 9.7
2007-07-03 07:02:56 51°12.208 2°48.419 251.8 13.5 249 10
2007-07-03 07:03:01 51°12.202 2°48.391 252.5 13.5 250 9.9
2007-07-03 07:03:06 51°12.195 2°48.363 252.6 13.5 249 10
2007-07-03 07:03:11 51°12.189 2°48.334 252.5 13.6 249 9.9
2007-07-03 07:03:16 51°12.182 2°48.306 251.9 13.5 249 10
2007-07-03 07:03:21 51°12.175 2°48.279 251.8 13.5 249 10
2007-07-03 07:03:26 51°12.168 2°48.251 251.7 13.6 249 10.2
2007-07-03 07:03:31 51°12.161 2°48.223 251.9 13.5 249 10.1
2007-07-03 07:03:36 51°12.155 2°48.195 252 13.6 249 10.1
2007-07-03 07:03:41 51°12.148 2°48.167 251.8 13.6 249 10
2007-07-03 07:03:46 51°12.141 2°48.139 251.7 13.6 249 10.1
2007-07-03 07:03:51 51°12.134 2°48.111 251.8 13.6 248 10.2
2007-07-03 07:03:56 51°12.128 2°48.083 252 13.6 249 10.3
2007-07-03 07:04:01 51°12.121 2°48.054 252 13.6 249 10.3
2007-07-03 07:04:06 51°12.114 2°48.026 251.7 13.6 249 10.1
2007-07-03 07:04:11 51°12.107 2°47.999 251.7 13.6 248 10.3
2007-07-03 07:04:16 51°12.1 2°47.971 251.7 13.6 249 10.2
2007-07-03 07:04:21 51°12.093 2°47.943 251.7 13.6 249 10.4
2007-07-03 07:04:26 51°12.086 2°47.915 251.5 13.6 248 10.2
2007-07-03 07:04:31 51°12.079 2°47.887 251.2 13.6 249 10.2
2007-07-03 07:04:36 51°12.072 2°47.859 251.4 13.6 249 10.3
2007-07-03 07:04:41 51°12.066 2°47.831 251.8 13.6 249 10.3
2007-07-03 07:04:46 51°12.059 2°47.803 252.1 13.6 249 10.3
2007-07-03 07:04:51 51°12.053 2°47.774 252.3 13.7 250 10.5
2007-07-03 07:04:56 51°12.046 2°47.747 252.3 13.6 249 10.3
2007-07-03 07:05:01 51°12.039 2°47.719 251.8 13.6 248 10.4
2007-07-03 07:05:06 51°12.032 2°47.691 251.6 13.6 249 10.4
2007-07-03 07:05:11 51°12.025 2°47.662 251.5 13.6 249 10.4
2007-07-03 07:05:16 51°12.018 2°47.634 251.4 13.6 249 10.6
2007-07-03 07:05:21 51°12.012 2°47.606 251.6 13.6 249 10.4
2007-07-03 07:05:26 51°12.005 2°47.578 251.6 13.7 249 10.6
2007-07-03 07:05:31 51°11.998 2°47.55 251.6 13.7 249 10.7
2007-07-03 07:05:36 51°11.991 2°47.522 251.3 13.7 249 10.6
2007-07-03 07:05:41 51°11.984 2°47.493 251.3 13.7 249 10.7
2007-07-03 07:05:46 51°11.978 2°47.465 251.7 13.7 249 10.6
2007-07-03 07:05:51 51°11.971 2°47.437 251.7 13.7 249 10.6
2007-07-03 07:05:56 51°11.964 2°47.409 251.6 13.7 249 10.8
2007-07-03 07:06:01 51°11.957 2°47.381 251.2 13.7 248 10.6
2007-07-03 07:06:06 51°11.95 2°47.353 251.1 13.6 248 10.6
2007-07-03 07:06:11 51°11.943 2°47.324 251.2 13.7 249 10.7
2007-07-03 07:06:16 51°11.937 2°47.296 251.4 13.7 249 10.7
2007-07-03 07:06:21 51°11.929 2°47.268 251.3 13.7 249 10.7
2007-07-03 07:06:26 51°11.922 2°47.24 251.3 13.7 248 10.6
2007-07-03 07:06:31 51°11.916 2°47.211 251.1 13.7 248 10.7
2007-07-03 07:06:36 51°11.909 2°47.184 250.7 13.7 249 10.6
2007-07-03 07:06:41 51°11.902 2°47.155 251 13.8 249 10.6
2007-07-03 07:06:46 51°11.895 2°47.127 251.1 13.8 249 10.8
2007-07-03 07:06:51 51°11.888 2°47.099 251.3 13.7 249 10.8
2007-07-03 07:06:56 51°11.881 2°47.07 251.7 13.7 249 10.7
2007-07-03 07:07:01 51°11.874 2°47.042 251.8 13.7 249 10.8
2007-07-03 07:07:06 51°11.868 2°47.014 251.8 13.7 249 10.8
2007-07-03 07:07:11 51°11.861 2°46.985 252 13.7 249 10.8
2007-07-03 07:07:16 51°11.854 2°46.957 251.9 13.7 249 10.8
2007-07-03 07:07:21 51°11.847 2°46.929 251.8 13.7 249 10.9
2007-07-03 07:07:26 51°11.84 2°46.9 251.6 13.7 248 11
2007-07-03 07:07:31 51°11.834 2°46.872 251.3 13.8 249 10.9
2007-07-03 07:07:36 51°11.827 2°46.844 251.3 13.8 249 10.9
2007-07-03 07:07:41 51°11.82 2°46.815 251.1 13.8 249 11.1
2007-07-03 07:07:46 51°11.812 2°46.787 250.8 13.8 248 11
2007-07-03 07:07:51 51°11.806 2°46.759 250.6 13.8 249 11
2007-07-03 07:07:56 51°11.798 2°46.731 251.1 13.8 248 11.1
2007-07-03 07:08:01 51°11.792 2°46.702 251.1 13.8 249 11
2007-07-03 07:08:06 51°11.784 2°46.674 251.1 13.8 248 11.1
2007-07-03 07:08:11 51°11.778 2°46.646 250.8 13.8 249 11.1
2007-07-03 07:08:16 51°11.771 2°46.617 250.8 13.8 250 11.1
2007-07-03 07:08:21 51°11.765 2°46.588 252.1 13.8 251 11.1
2007-07-03 07:08:26 51°11.759 2°46.559 253.6 13.8 252 11.2
2007-07-03 07:08:31 51°11.753 2°46.53 254.5 13.8 253 11.3
2007-07-03 07:08:36 51°11.748 2°46.501 255.4 13.8 254 11
2007-07-03 07:08:41 51°11.742 2°46.472 256.2 13.8 254 11.3
2007-07-03 07:08:46 51°11.737 2°46.443 257 13.8 255 11.4
2007-07-03 07:08:51 51°11.732 2°46.413 257 13.8 254 11.2
2007-07-03 07:08:56 51°11.727 2°46.383 256.8 13.8 254 11.3
2007-07-03 07:09:01 51°11.721 2°46.355 256.5 13.8 253 11.3
2007-07-03 07:09:06 51°11.716 2°46.326 255.8 13.8 253 11.4
2007-07-03 07:09:11 51°11.71 2°46.297 255.6 13.8 253 11.5
2007-07-03 07:09:16 51°11.705 2°46.268 255.5 13.8 253 11.4
2007-07-03 07:09:21 51°11.699 2°46.239 255.8 13.7 253 11.3
2007-07-03 07:09:26 51°11.693 2°46.21 255.8 13.7 253 11.5
2007-07-03 07:09:31 51°11.688 2°46.181 255.7 13.8 253 11.3
2007-07-03 07:09:36 51°11.682 2°46.152 256 13.7 254 11.3
2007-07-03 07:09:41 51°11.677 2°46.123 256.1 13.7 253 11.3
2007-07-03 07:09:46 51°11.671 2°46.094 255.8 13.7 253 11.4
2007-07-03 07:09:51 51°11.666 2°46.065 255.7 13.8 253 11.4
2007-07-03 07:09:56 51°11.66 2°46.036 255.6 13.7 253 11.4
2007-07-03 07:10:01 51°11.655 2°46.007 255.5 13.7 253 11.3
2007-07-03 07:10:06 51°11.649 2°45.978 255.4 13.8 253 11.5
2007-07-03 07:10:11 51°11.643 2°45.949 255.4 13.8 253 11.5
2007-07-03 07:10:16 51°11.638 2°45.92 255.7 13.7 253 11.4
2007-07-03 07:10:21 51°11.633 2°45.89 256.1 13.7 254 11.5
2007-07-03 07:10:26 51°11.628 2°45.861 256.9 13.7 254 11.4
2007-07-03 07:10:31 51°11.623 2°45.832 257.2 13.7 255 11.4
2007-07-03 07:10:36 51°11.618 2°45.802 257.8 13.8 255 11.4
2007-07-03 07:10:41 51°11.614 2°45.773 258.1 13.7 256 11.5
2007-07-03 07:10:46 51°11.609 2°45.744 258.3 13.8 255 11.5
2007-07-03 07:10:51 51°11.604 2°45.714 258 13.7 255 11.4
2007-07-03 07:10:56 51°11.599 2°45.686 257.8 13.6 254 11.5
2007-07-03 07:11:01 51°11.594 2°45.656 257.4 13.7 255 11.5
2007-07-03 07:11:06 51°11.589 2°45.627 257.4 13.7 255 11.6
2007-07-03 07:11:11 51°11.584 2°45.598 257.5 13.7 255 11.4
2007-07-03 07:11:16 51°11.579 2°45.569 257.3 13.7 255 11.4
2007-07-03 07:11:21 51°11.574 2°45.54 257.6 13.7 255 11.4
2007-07-03 07:11:26 51°11.569 2°45.511 257.6 13.7 254 11.5
2007-07-03 07:11:31 51°11.564 2°45.482 257.3 13.7 255 11.5
2007-07-03 07:11:36 51°11.559 2°45.452 257.2 13.7 254 11.5
2007-07-03 07:11:41 51°11.554 2°45.423 257.1 13.7 255 11.4
2007-07-03 07:11:46 51°11.549 2°45.394 257.2 13.7 255 11.6
2007-07-03 07:11:51 51°11.544 2°45.365 257.5 13.8 255 11.6
2007-07-03 07:11:56 51°11.539 2°45.335 257.6 13.8 255 11.5
2007-07-03 07:12:01 51°11.534 2°45.306 257.6 13.7 255 11.6
2007-07-03 07:12:06 51°11.529 2°45.277 257.4 13.8 255 11.6
2007-07-03 07:12:11 51°11.524 2°45.248 257.2 13.7 255 11.4
2007-07-03 07:12:16 51°11.519 2°45.219 257.2 13.8 255 11.5
2007-07-03 07:12:21 51°11.514 2°45.189 257.4 13.8 255 11.6
2007-07-03 07:12:26 51°11.509 2°45.16 257.6 13.7 255 11.6
2007-07-03 07:12:31 51°11.504 2°45.131 257.6 13.7 255 11.6
2007-07-03 07:12:36 51°11.499 2°45.102 257.3 13.7 254 11.4
2007-07-03 07:12:41 51°11.494 2°45.072 257.1 13.8 255 11.5
2007-07-03 07:12:46 51°11.488 2°45.043 257.1 13.8 254 11.5
2007-07-03 07:12:51 51°11.483 2°45.014 257 13.7 254 11.5
2007-07-03 07:12:56 51°11.478 2°44.985 256.8 13.7 255 11.5
2007-07-03 07:13:01 51°11.473 2°44.955 256.9 13.8 255 11.6
2007-07-03 07:13:06 51°11.468 2°44.926 257.2 13.8 255 11.6
2007-07-03 07:13:11 51°11.463 2°44.897 257.2 13.8 255 11.6
2007-07-03 07:13:16 51°11.458 2°44.867 257.2 13.8 255 11.5
2007-07-03 07:13:21 51°11.453 2°44.838 257.2 13.9 255 11.6
2007-07-03 07:13:26 51°11.448 2°44.809 257.3 13.7 255 11.5
2007-07-03 07:13:31 51°11.443 2°44.78 257.2 13.8 255 11.3
2007-07-03 07:13:36 51°11.438 2°44.75 257.2 13.8 255 11.6
2007-07-03 07:13:41 51°11.434 2°44.721 257.8 13.8 255 11.5
2007-07-03 07:13:46 51°11.429 2°44.692 257.6 13.7 255 11.5
2007-07-03 07:13:51 51°11.424 2°44.662 257.5 13.8 255 11.6
2007-07-03 07:13:56 51°11.419 2°44.633 257.6 13.8 255 11.6
2007-07-03 07:14:01 51°11.414 2°44.604 257.7 13.8 255 11.5
2007-07-03 07:14:06 51°11.409 2°44.574 257.7 13.8 255 11.6
2007-07-03 07:14:11 51°11.404 2°44.545 258.1 13.8 256 11.4
2007-07-03 07:14:16 51°11.399 2°44.516 258.2 13.8 255 11.5
2007-07-03 07:14:21 51°11.394 2°44.486 257.7 13.8 255 11.5
2007-07-03 07:14:26 51°11.39 2°44.457 257.6 13.8 255 11.6
2007-07-03 07:14:31 51°11.385 2°44.428 257.6 13.7 255 11.6
2007-07-03 07:14:36 51°11.38 2°44.398 257.6 13.7 255 11.5
2007-07-03 07:14:41 51°11.375 2°44.369 257.8 13.8 255 11.5
2007-07-03 07:14:46 51°11.37 2°44.34 257.7 13.7 255 11.6
2007-07-03 07:14:51 51°11.365 2°44.311 257.5 13.7 254 11.5
2007-07-03 07:14:56 51°11.36 2°44.282 257.4 13.7 255 11.6
2007-07-03 07:15:01 51°11.355 2°44.253 257 13.6 254 11.5
2007-07-03 07:15:06 51°11.35 2°44.223 257.1 13.7 255 11.5
2007-07-03 07:15:11 51°11.345 2°44.194 257.4 13.7 255 11.5
2007-07-03 07:15:16 51°11.34 2°44.165 257.5 13.7 254 11.5
2007-07-03 07:15:21 51°11.335 2°44.136 257.4 13.7 254 11.5
2007-07-03 07:15:26 51°11.33 2°44.106 257.2 13.7 255 11.6
2007-07-03 07:15:31 51°11.325 2°44.077 257.6 13.7 255 11.5
2007-07-03 07:15:36 51°11.32 2°44.048 257.5 13.8 255 11.6
2007-07-03 07:15:41 51°11.315 2°44.018 257.8 13.7 255 11.5
2007-07-03 07:15:46 51°11.31 2°43.989 258 13.7 255 11.4
2007-07-03 07:15:51 51°11.305 2°43.96 257.5 13.7 255 11.6
2007-07-03 07:15:56 51°11.3 2°43.931 257.5 13.8 255 11.5
2007-07-03 07:16:01 51°11.295 2°43.901 257.2 13.7 255 11.5
2007-07-03 07:16:06 51°11.29 2°43.872 257.3 13.7 255 11.5
2007-07-03 07:16:11 51°11.285 2°43.843 257.4 13.8 255 11.6
2007-07-03 07:16:16 51°11.28 2°43.813 257.6 13.8 255 11.4
2007-07-03 07:16:21 51°11.275 2°43.784 257.5 13.7 254 11.5
2007-07-03 07:16:26 51°11.27 2°43.755 257.3 13.7 255 11.5
2007-07-03 07:16:31 51°11.265 2°43.725 257.4 13.8 255 11.5
2007-07-03 07:16:36 51°11.26 2°43.696 257.5 13.8 255 11.4
2007-07-03 07:16:41 51°11.256 2°43.666 257.8 13.8 255 11.5
2007-07-03 07:16:46 51°11.251 2°43.637 257.8 13.8 255 11.6
2007-07-03 07:16:51 51°11.246 2°43.607 257.6 13.8 255 11.5
2007-07-03 07:16:56 51°11.241 2°43.578 257.1 13.8 255 11.5
2007-07-03 07:17:01 51°11.235 2°43.548 257.1 13.9 255 11.5
2007-07-03 07:17:06 51°11.23 2°43.519 257.1 13.8 255 11.6
2007-07-03 07:17:11 51°11.225 2°43.49 257.1 13.8 255 11.4
2007-07-03 07:17:16 51°11.22 2°43.46 256.9 13.9 255 11.4
2007-07-03 07:17:21 51°11.215 2°43.431 256.9 13.9 255 11.5
2007-07-03 07:17:26 51°11.21 2°43.401 257.2 13.8 255 11.5
2007-07-03 07:17:31 51°11.205 2°43.372 257.4 13.9 255 11.5
2007-07-03 07:17:36 51°11.2 2°43.342 257.3 13.8 255 11.4
2007-07-03 07:17:41 51°11.195 2°43.313 257.3 13.9 255 11.4
2007-07-03 07:17:46 51°11.19 2°43.283 257.2 13.9 255 11.5
2007-07-03 07:17:51 51°11.185 2°43.254 257 13.8 255 11.5
2007-07-03 07:17:56 51°11.179 2°43.225 256.8 13.8 254 11.4
2007-07-03 07:18:01 51°11.174 2°43.195 256.8 13.9 255 11.5
2007-07-03 07:18:06 51°11.169 2°43.166 257.2 13.8 255 11.4
2007-07-03 07:18:11 51°11.164 2°43.136 257.3 13.8 255 11.5
2007-07-03 07:18:16 51°11.16 2°43.106 257.6 13.9 255 11.5
2007-07-03 07:18:21 51°11.155 2°43.077 257.7 13.8 255 11.5
2007-07-03 07:18:26 51°11.15 2°43.047 257.8 13.8 255 11.5
2007-07-03 07:18:31 51°11.145 2°43.018 257.4 13.9 254 11.5
2007-07-03 07:18:36 51°11.139 2°42.988 256.9 13.9 254 11.4
2007-07-03 07:18:41 51°11.133 2°42.959 256.2 13.8 253 11.5
2007-07-03 07:18:46 51°11.128 2°42.93 255.3 13.8 252 11.4
2007-07-03 07:18:51 51°11.122 2°42.901 254.6 13.8 252 11.5
2007-07-03 07:18:56 51°11.116 2°42.872 254 13.8 251 11.4
2007-07-03 07:19:01 51°11.11 2°42.843 253.6 13.8 252 11.4
2007-07-03 07:19:06 51°11.104 2°42.814 253.6 13.8 252 11.6
2007-07-03 07:19:11 51°11.098 2°42.785 254.1 13.8 253 11.4
2007-07-03 07:19:16 51°11.093 2°42.756 254.7 13.8 254 11.5
2007-07-03 07:19:21 51°11.088 2°42.727 255.7 13.8 254 11.5
2007-07-03 07:19:26 51°11.082 2°42.698 256.7 13.8 255 11.4
2007-07-03 07:19:31 51°11.078 2°42.668 257.5 13.7 256 11.4
2007-07-03 07:19:36 51°11.073 2°42.638 257.4 13.7 254 11.4
2007-07-03 07:19:41 51°11.069 2°42.608 257 13.7 257 11.5
2007-07-03 07:19:46 51°11.065 2°42.58 259 13.1 259 11.2
2007-07-03 07:19:51 51°11.063 2°42.553 261.6 12.4 263 11.3
2007-07-03 07:19:56 51°11.062 2°42.527 265.7 11.9 268 11.4
2007-07-03 07:20:01 51°11.064 2°42.502 272.8 11.2 276 11.4
2007-07-03 07:20:06 51°11.066 2°42.479 280.3 10.8 280 11.4
2007-07-03 07:20:11 51°11.07 2°42.456 286.8 10.5 284 11.4
2007-07-03 07:20:16 51°11.073 2°42.435 289.5 10.2 283 11.6
2007-07-03 07:20:21 51°11.076 2°42.414 289.3 9.8 283 11.5
2007-07-03 07:20:26 51°11.079 2°42.393 288.3 9.3 281 11.6
2007-07-03 07:20:31 51°11.081 2°42.375 286.8 8.7 280 11.5
2007-07-03 07:20:36 51°11.082 2°42.357 284.1 8.2 277 11.4
2007-07-03 07:20:41 51°11.083 2°42.34 280.8 7.8 275 11.5
2007-07-03 07:20:46 51°11.083 2°42.324 277.5 7.4 272 11.4
2007-07-03 07:20:51 51°11.083 2°42.308 274.9 7.1 271 11.4
2007-07-03 07:20:56 51°11.083 2°42.293 272.8 6.8 269 11.4
2007-07-03 07:21:01 51°11.083 2°42.279 271.7 6.5 269 11.5
2007-07-03 07:21:06 51°11.083 2°42.265 271.4 6.3 268 11.4
2007-07-03 07:21:11 51°11.083 2°42.251 271.4 6.1 269 11.4
2007-07-03 07:21:16 51°11.082 2°42.239 271.4 5.8 268 11.4
2007-07-03 07:21:21 51°11.082 2°42.226 271.4 5.6 269 11.4
2007-07-03 07:21:26 51°11.082 2°42.214 271.4 5.5 269 11.3
2007-07-03 07:21:31 51°11.082 2°42.203 271.8 5.3 270 11.3
2007-07-03 07:21:36 51°11.082 2°42.191 272.1 5.1 270 11.4
2007-07-03 07:21:41 51°11.082 2°42.18 272.9 4.9 272 11.3
2007-07-03 07:21:46 51°11.082 2°42.17 273.9 4.8 271 11.4
2007-07-03 07:21:51 51°11.083 2°42.159 275 4.7 274 11.4
2007-07-03 07:21:56 51°11.083 2°42.15 276.8 4.5 275 11.3
2007-07-03 07:22:01 51°11.084 2°42.14 278.6 4.4 277 11.3
2007-07-03 07:22:06 51°11.085 2°42.131 280.3 4.2 276 11.2
2007-07-03 07:22:11 51°11.085 2°42.122 281.9 4 278 11.3
2007-07-03 07:22:16 51°11.086 2°42.114 283 3.8 278 11.2
2007-07-03 07:22:21 51°11.087 2°42.106 283.6 3.5 280 11.2
2007-07-03 07:22:26 51°11.088 2°42.099 284.8 3.2 279 11.3
2007-07-03 07:22:31 51°11.088 2°42.094 286.3 2.6 281 11.2
2007-07-03 07:22:36 51°11.089 2°42.089 289.2 2.2 281 11.2
2007-07-03 07:22:41 51°11.089 2°42.085 293 1.8 281 11.3
2007-07-03 07:22:46 51°11.09 2°42.082 295.7 1.4 279 11.2
2007-07-03 07:22:51 51°11.09 2°42.081 297.6 1 274 11.2
2007-07-03 07:22:56 51°11.09 2°42.079 299.6 0.6 270 11.2
2007-07-03 07:23:01 51°11.09 2°42.079 301.7 0.4 251 11.2
2007-07-03 07:23:06 51°11.09 2°42.078 303.9 0.4 249 11.2
2007-07-03 07:23:11 51°11.09 2°42.077 306.5 0.4 258 11.2
2007-07-03 07:23:16 51°11.089 2°42.076 308.3 0.3 259 11.1
2007-07-03 07:23:21 51°11.089 2°42.075 310.5 0.4 256 11.2
2007-07-03 07:23:26 51°11.089 2°42.075 312.6 0.4 264 -999
2007-07-03 07:23:32 51°11.089 2°42.073 314.6 0.4 265 -999
2007-07-03 07:23:38 51°11.089 2°42.072 316.4 0.4 269 -999
2007-07-03 07:23:43 51°11.089 2°42.071 317.2 0.5 273 -999
2007-07-03 07:23:49 51°11.089 2°42.07 318.4 0.5 270 -999
2007-07-03 07:23:54 51°11.089 2°42.069 319.6 0.5 269 -999
2007-07-03 07:24:00 51°11.089 2°42.068 320.6 0.5 269 -999
2007-07-03 07:24:05 51°11.089 2°42.066 321.5 0.5 269 -999
2007-07-03 07:24:09 51°11.089 2°42.066 322.2 0.5 272 -999
2007-07-03 07:24:14 51°11.089 2°42.064 322.9 0.6 269 -999
2007-07-03 07:24:20 51°11.089 2°42.063 323.8 0.5 277 -999
2007-07-03 07:24:25 51°11.089 2°42.061 324.7 0.5 275 5.1
2007-07-03 07:24:29 51°11.089 2°42.06 325.2 0.5 278 11.2
2007-07-03 07:24:34 51°11.089 2°42.059 325.8 0.6 272 11.2
2007-07-03 07:24:39 51°11.089 2°42.057 326.6 0.6 273 11.1
2007-07-03 07:24:44 51°11.089 2°42.056 327.3 0.6 275 11.2
2007-07-03 07:24:49 51°11.089 2°42.055 327.5 0.6 280 11.2
2007-07-03 07:24:53 51°11.089 2°42.054 328 0.6 275 11.1
2007-07-03 07:24:58 51°11.09 2°42.053 328.2 0.5 284 11.2
2007-07-03 07:25:02 51°11.09 2°42.051 328.4 0.6 278 11.2
2007-07-03 07:25:08 51°11.09 2°42.05 328.6 0.6 282 11.2
2007-07-03 07:25:12 51°11.09 2°42.049 328.8 0.6 279 11.1
2007-07-03 07:25:17 51°11.091 2°42.048 329 0.6 286 11.1
2007-07-03 07:25:22 51°11.091 2°42.046 329.3 0.6 280 11.2
2007-07-03 07:25:26 51°11.091 2°42.045 329.5 0.6 281 11.1
2007-07-03 07:25:31 51°11.091 2°42.044 330.2 0.6 283 11.1
2007-07-03 07:25:36 51°11.091 2°42.043 330.2 0.7 282 11.2
2007-07-03 07:25:41 51°11.092 2°42.042 330.3 0.7 284 11.2
2007-07-03 07:25:46 51°11.092 2°42.04 330.5 0.7 284 11.2
2007-07-03 07:25:51 51°11.092 2°42.039 330.7 0.6 287 11.1
2007-07-03 07:25:56 51°11.092 2°42.038 330.9 0.7 285 11.2
2007-07-03 07:26:01 51°11.092 2°42.036 331 0.6 287 11.1
2007-07-03 07:26:06 51°11.093 2°42.035 331.1 0.6 287 11.2
2007-07-03 07:26:11 51°11.093 2°42.033 331.1 0.7 287 11.1
2007-07-03 07:26:16 51°11.093 2°42.032 331.4 0.6 290 11.2
2007-07-03 07:26:21 51°11.093 2°42.03 331.6 0.7 282 11.1
2007-07-03 07:26:26 51°11.094 2°42.029 331.8 0.6 289 11.1
2007-07-03 07:26:31 51°11.094 2°42.028 331.9 0.7 280 11
2007-07-03 07:26:36 51°11.094 2°42.026 332.1 0.6 289 11.1
2007-07-03 07:26:41 51°11.094 2°42.025 332.1 0.6 285 11
2007-07-03 07:26:46 51°11.095 2°42.024 332.3 0.7 289 11.1
2007-07-03 07:26:51 51°11.095 2°42.023 332.1 0.7 292 11.1
2007-07-03 07:26:56 51°11.096 2°42.021 332.1 0.6 296 11.2
2007-07-03 07:27:01 51°11.096 2°42.02 331.8 0.7 294 11.2
2007-07-03 07:27:06 51°11.096 2°42.019 331.7 0.7 294 11.1
2007-07-03 07:27:11 51°11.097 2°42.018 331.5 0.7 294 11.1
2007-07-03 07:27:16 51°11.097 2°42.016 331.4 0.7 294 11.2
2007-07-03 07:27:21 51°11.097 2°42.015 331.2 0.7 287 11.1
2007-07-03 07:27:26 51°11.098 2°42.014 331.1 0.7 294 11.1
2007-07-03 07:27:31 51°11.098 2°42.012 330.9 0.7 287 11.1
2007-07-03 07:27:36 51°11.098 2°42.011 330.5 0.7 289 11.1
2007-07-03 07:27:41 51°11.098 2°42.009 330.1 0.7 288 11.1
2007-07-03 07:27:46 51°11.099 2°42.008 329.5 0.7 287 11.1
2007-07-03 07:27:51 51°11.099 2°42.006 329.1 0.6 296 11.1
2007-07-03 07:27:56 51°11.1 2°42.005 328.7 0.7 295 11.2
2007-07-03 07:28:01 51°11.1 2°42.003 328.3 0.7 295 11.1
2007-07-03 07:28:06 51°11.1 2°42.002 328.5 0.7 291 11.1
2007-07-03 07:28:11 51°11.101 2°42.001 328.7 0.7 291 11.1
2007-07-03 07:28:16 51°11.101 2°41.999 328.6 0.7 295 11
2007-07-03 07:28:21 51°11.101 2°41.998 328.4 0.6 291 11.1
2007-07-03 07:28:26 51°11.102 2°41.997 328.1 0.7 289 11
2007-07-03 07:28:31 51°11.102 2°41.995 327.8 0.7 291 11.1
2007-07-03 07:28:36 51°11.103 2°41.994 327.3 0.7 291 11
2007-07-03 07:28:41 51°11.103 2°41.992 326.6 0.7 290 11
2007-07-03 07:28:46 51°11.103 2°41.991 326.2 0.7 295 11.1
2007-07-03 07:28:51 51°11.104 2°41.989 325.6 0.7 289 11
2007-07-03 07:28:56 51°11.104 2°41.988 325.4 0.7 296 11
2007-07-03 07:29:01 51°11.104 2°41.986 324.7 0.7 289 11
2007-07-03 07:29:06 51°11.105 2°41.985 324.5 0.7 295 11.1
2007-07-03 07:29:11 51°11.105 2°41.984 323.9 0.7 293 11.1
2007-07-03 07:29:16 51°11.106 2°41.982 323.5 0.7 291 11
2007-07-03 07:29:21 51°11.106 2°41.981 322.9 0.7 291 11.1
2007-07-03 07:29:26 51°11.106 2°41.979 322.5 0.7 295 11
2007-07-03 07:29:31 51°11.107 2°41.977 322.3 0.7 290 11.1
2007-07-03 07:29:36 51°11.107 2°41.976 322.2 0.7 295 11
2007-07-03 07:29:41 51°11.107 2°41.974 322 0.7 289 11
2007-07-03 07:29:46 51°11.108 2°41.973 321.8 0.7 292 11
2007-07-03 07:29:51 51°11.108 2°41.971 321.6 0.7 293 11
2007-07-03 07:29:56 51°11.108 2°41.97 321.2 0.7 287 11
2007-07-03 07:30:01 51°11.109 2°41.968 321.1 0.7 289 10.9
2007-07-03 07:30:06 51°11.109 2°41.967 320.9 0.8 285 10.9
2007-07-03 07:30:11 51°11.11 2°41.965 320.8 0.8 292 10.9
2007-07-03 07:30:16 51°11.11 2°41.964 320.5 0.8 291 11
2007-07-03 07:30:21 51°11.11 2°41.962 320 0.8 291 11
2007-07-03 07:30:26 51°11.111 2°41.96 319.7 1 297 11
2007-07-03 07:30:31 51°11.112 2°41.958 319.2 1.2 298 11
2007-07-03 07:30:36 51°11.113 2°41.955 317.9 1.6 302 11
2007-07-03 07:30:41 51°11.114 2°41.951 316.2 1.9 301 11.1
2007-07-03 07:30:46 51°11.116 2°41.947 313.8 2.3 302 11
2007-07-03 07:30:51 51°11.118 2°41.941 311.1 2.8 297 11.1
2007-07-03 07:30:56 51°11.119 2°41.935 307.8 3.3 294 11
2007-07-03 07:31:01 51°11.121 2°41.927 304.1 3.7 292 11
2007-07-03 07:31:06 51°11.123 2°41.919 299.9 4.2 287 10.9
2007-07-03 07:31:11 51°11.125 2°41.909 294.8 4.6 284 10.9
2007-07-03 07:31:16 51°11.126 2°41.898 289.4 5 279 10.9
2007-07-03 07:31:21 51°11.126 2°41.886 283.7 5.4 275 10.9
2007-07-03 07:31:26 51°11.126 2°41.873 278.4 5.9 270 10.9
2007-07-03 07:31:31 51°11.126 2°41.858 273 6.5 266 10.9
2007-07-03 07:31:36 51°11.124 2°41.843 267 7.1 260 10.9
2007-07-03 07:31:41 51°11.121 2°41.827 261.1 7.6 256 10.9
2007-07-03 07:31:46 51°11.118 2°41.81 255.8 8.1 252 10.9
2007-07-03 07:31:51 51°11.114 2°41.792 252.7 8.6 252 10.9
2007-07-03 07:31:56 51°11.11 2°41.773 252.2 9 252 10.9
2007-07-03 07:32:01 51°11.106 2°41.753 252.4 9.3 252 10.8
2007-07-03 07:32:06 51°11.102 2°41.733 252.5 9.7 252 10.9
2007-07-03 07:32:11 51°11.098 2°41.712 252.9 10.1 253 10.8
2007-07-03 07:32:16 51°11.094 2°41.69 253.5 10.5 253 10.8
2007-07-03 07:32:21 51°11.089 2°41.667 253.5 10.8 253 10.7
2007-07-03 07:32:26 51°11.084 2°41.643 253.6 11.2 252 10.9
2007-07-03 07:32:31 51°11.079 2°41.619 253.6 11.5 253 10.8
2007-07-03 07:32:36 51°11.075 2°41.595 253.7 11.7 252 10.8
2007-07-03 07:32:41 51°11.07 2°41.57 253.6 11.8 252 10.7
2007-07-03 07:32:46 51°11.064 2°41.545 253.4 12.1 253 10.7
2007-07-03 07:32:51 51°11.06 2°41.519 253.7 12.3 253 10.8
2007-07-03 07:32:56 51°11.054 2°41.493 254 12.5 253 10.8
2007-07-03 07:33:01 51°11.049 2°41.466 254.1 12.7 253 10.8
2007-07-03 07:33:06 51°11.044 2°41.439 254.1 12.8 253 10.9
2007-07-03 07:33:11 51°11.039 2°41.411 254.4 12.9 253 10.9
2007-07-03 07:33:16 51°11.034 2°41.384 254.7 13.2 253 10.9
2007-07-03 07:33:21 51°11.028 2°41.356 254.6 13.2 253 10.9
2007-07-03 07:33:26 51°11.023 2°41.328 254.6 13.3 253 11
2007-07-03 07:33:31 51°11.018 2°41.299 254.8 13.4 253 11
2007-07-03 07:33:36 51°11.013 2°41.271 254.9 13.4 254 10.9
2007-07-03 07:33:41 51°11.007 2°41.243 255 13.5 253 11
2007-07-03 07:33:46 51°11.002 2°41.214 255.1 13.6 254 11
2007-07-03 07:33:51 51°10.997 2°41.185 255.3 13.6 253 11.2
2007-07-03 07:33:56 51°10.991 2°41.156 255.1 13.6 253 11.1
2007-07-03 07:34:01 51°10.985 2°41.127 254.7 13.7 253 11.2
2007-07-03 07:34:06 51°10.98 2°41.098 254.5 13.7 253 11.1
2007-07-03 07:34:11 51°10.974 2°41.069 254.5 13.7 253 11.1
2007-07-03 07:34:16 51°10.969 2°41.04 254.5 13.8 253 11.3
2007-07-03 07:34:21 51°10.963 2°41.011 254.7 13.7 253 11.2
2007-07-03 07:34:26 51°10.957 2°40.982 254.7 13.9 253 11.5
2007-07-03 07:34:31 51°10.952 2°40.953 254.8 13.8 253 11.2
2007-07-03 07:34:36 51°10.946 2°40.923 254.7 13.8 253 11.4
2007-07-03 07:34:41 51°10.941 2°40.894 254.9 13.8 253 11.4
2007-07-03 07:34:46 51°10.935 2°40.865 254.9 13.8 254 11.4
2007-07-03 07:34:51 51°10.93 2°40.836 255.3 13.8 254 11.5
2007-07-03 07:34:56 51°10.925 2°40.806 255.4 13.9 254 11.5
2007-07-03 07:35:01 51°10.919 2°40.777 255.4 13.9 254 11.7
2007-07-03 07:35:06 51°10.914 2°40.748 255.5 13.9 253 11.6
2007-07-03 07:35:11 51°10.909 2°40.718 255.3 13.9 254 11.6
2007-07-03 07:35:16 51°10.903 2°40.689 255.3 13.8 254 11.6
2007-07-03 07:35:21 51°10.898 2°40.66 255.1 13.8 254 11.8
2007-07-03 07:35:26 51°10.892 2°40.631 255 13.8 253 11.7
2007-07-03 07:35:31 51°10.886 2°40.601 254.7 13.8 253 11.8
2007-07-03 07:35:36 51°10.881 2°40.572 254.6 13.9 253 11.8
2007-07-03 07:35:41 51°10.875 2°40.543 254.5 13.9 253 11.9
2007-07-03 07:35:46 51°10.87 2°40.514 254.6 13.9 253 11.9
2007-07-03 07:35:51 51°10.864 2°40.485 254.6 13.8 253 11.9
2007-07-03 07:35:56 51°10.858 2°40.455 254.5 13.8 253 12
2007-07-03 07:36:01 51°10.853 2°40.426 254.3 13.9 253 12
2007-07-03 07:36:06 51°10.847 2°40.397 254.3 13.9 253 12.1
2007-07-03 07:36:11 51°10.841 2°40.368 254.3 13.9 253 12.1
2007-07-03 07:36:16 51°10.836 2°40.338 254.5 13.9 253 12.3
2007-07-03 07:36:21 51°10.83 2°40.309 254.8 13.9 254 12.3
2007-07-03 07:36:26 51°10.825 2°40.28 255.1 13.8 253 12.3
2007-07-03 07:36:31 51°10.819 2°40.25 255.3 13.9 254 12.3
2007-07-03 07:36:36 51°10.814 2°40.22 255.6 13.8 254 12.4
2007-07-03 07:36:41 51°10.808 2°40.191 255.4 13.9 253 12.4
2007-07-03 07:36:46 51°10.803 2°40.162 255.4 13.9 254 12.5
2007-07-03 07:36:51 51°10.798 2°40.132 255.3 13.9 254 12.6
2007-07-03 07:36:56 51°10.792 2°40.103 255.3 13.9 254 12.5
2007-07-03 07:37:01 51°10.787 2°40.073 255.6 13.9 254 12.5
2007-07-03 07:37:06 51°10.781 2°40.043 255.6 13.9 253 12.6
2007-07-03 07:37:11 51°10.776 2°40.014 255.4 13.9 254 12.7
2007-07-03 07:37:16 51°10.77 2°39.984 255.6 13.9 254 12.9
2007-07-03 07:37:21 51°10.765 2°39.955 255.4 13.9 254 12.8
2007-07-03 07:37:26 51°10.76 2°39.925 255.6 13.9 254 13
2007-07-03 07:37:31 51°10.755 2°39.896 255.6 13.9 254 12.9
2007-07-03 07:37:36 51°10.749 2°39.866 255.3 13.9 253 13
2007-07-03 07:37:41 51°10.744 2°39.838 255.4 13.9 254 13
2007-07-03 07:37:46 51°10.739 2°39.808 255.4 13.9 253 13
2007-07-03 07:37:51 51°10.733 2°39.779 255.2 13.9 254 13
2007-07-03 07:37:57 51°10.726 2°39.744 255.2 13.9 253 13
2007-07-03 07:38:01 51°10.722 2°39.72 254.9 13.9 253 13.1
2007-07-03 07:38:06 51°10.716 2°39.69 255.1 13.9 254 13.1
2007-07-03 07:38:11 51°10.711 2°39.661 255.2 13.8 254 13.2
2007-07-03 07:38:16 51°10.706 2°39.632 255.4 13.9 254 13.2
2007-07-03 07:38:21 51°10.7 2°39.602 255.7 13.9 254 13.3
2007-07-03 07:38:26 51°10.695 2°39.573 255.7 13.9 254 13.3
2007-07-03 07:38:31 51°10.689 2°39.543 255.4 13.9 254 13.4
2007-07-03 07:38:36 51°10.684 2°39.514 255.4 13.9 253 13.4
2007-07-03 07:38:41 51°10.679 2°39.484 255.4 13.9 253 13.6
2007-07-03 07:38:46 51°10.673 2°39.455 255.4 14 254 13.5
2007-07-03 07:38:51 51°10.668 2°39.425 255.3 14 254 13.7
2007-07-03 07:38:56 51°10.662 2°39.395 255.4 14 254 13.7
2007-07-03 07:39:01 51°10.657 2°39.366 255.7 13.9 253 13.8
2007-07-03 07:39:06 51°10.652 2°39.336 255.4 13.9 254 13.8
2007-07-03 07:39:11 51°10.646 2°39.307 255.4 14 254 14
2007-07-03 07:39:16 51°10.641 2°39.277 255.5 14 254 14
2007-07-03 07:39:21 51°10.635 2°39.247 255.4 14 254 14.2
2007-07-03 07:39:26 51°10.63 2°39.218 255.4 14 253 14.3
2007-07-03 07:39:31 51°10.624 2°39.188 255.2 14 254 14.2
2007-07-03 07:39:36 51°10.619 2°39.159 255.1 13.9 254 14.4
2007-07-03 07:39:41 51°10.613 2°39.129 255.1 14 253 14.4
2007-07-03 07:39:46 51°10.608 2°39.1 255.1 14 254 14.6
2007-07-03 07:39:51 51°10.602 2°39.07 255.3 14 254 14.6
2007-07-03 07:39:56 51°10.597 2°39.041 255.3 14 254 14.7
2007-07-03 07:40:01 51°10.591 2°39.011 255.3 14 254 14.7
2007-07-03 07:40:06 51°10.586 2°38.982 255.4 14 254 14.8
2007-07-03 07:40:11 51°10.581 2°38.952 255.6 14 254 14.8
2007-07-03 07:40:17 51°10.574 2°38.917 255.6 14 253 14.9
2007-07-03 07:40:21 51°10.569 2°38.893 255.2 14 254 15
2007-07-03 07:40:26 51°10.564 2°38.864 255.3 13.9 253 15
2007-07-03 07:40:31 51°10.558 2°38.834 254.9 14 253 15
2007-07-03 07:40:36 51°10.553 2°38.804 254.9 13.9 253 15.2
2007-07-03 07:40:41 51°10.547 2°38.775 254.9 13.9 253 15.1
2007-07-03 07:40:46 51°10.542 2°38.746 255 13.9 254 15.3
2007-07-03 07:40:51 51°10.536 2°38.716 255.4 14 254 15.3
2007-07-03 07:40:56 51°10.531 2°38.687 255.6 14 254 15.5
2007-07-03 07:41:01 51°10.526 2°38.657 255.8 13.9 254 15.6
2007-07-03 07:41:06 51°10.521 2°38.628 255.8 13.8 254 15.5
2007-07-03 07:41:11 51°10.515 2°38.598 255.3 13.9 253 15.5
2007-07-03 07:41:16 51°10.51 2°38.569 255.3 14 254 15.6
2007-07-03 07:41:21 51°10.504 2°38.539 255.6 13.9 254 15.6
2007-07-03 07:41:26 51°10.499 2°38.51 255.4 13.9 254 15.6
2007-07-03 07:41:31 51°10.494 2°38.48 255.4 14 254 15.7
2007-07-03 07:41:36 51°10.488 2°38.451 255.4 13.9 254 15.9
2007-07-03 07:41:41 51°10.483 2°38.421 255.4 13.9 253 15.8
2007-07-03 07:41:46 51°10.477 2°38.392 255 14 253 15.9
2007-07-03 07:41:51 51°10.471 2°38.363 254.8 13.9 253 15.8
2007-07-03 07:41:56 51°10.466 2°38.333 254.7 14 253 16
2007-07-03 07:42:01 51°10.46 2°38.303 254.9 14 254 16.1
2007-07-03 07:42:06 51°10.455 2°38.274 255.3 14 254 16.2
2007-07-03 07:42:11 51°10.45 2°38.244 255.4 14 254 16.3
2007-07-03 07:42:16 51°10.444 2°38.215 255.4 14 254 16.3
2007-07-03 07:42:21 51°10.439 2°38.185 255.4 14 254 16.3
2007-07-03 07:42:26 51°10.433 2°38.155 255.4 14 254 16.4
2007-07-03 07:42:31 51°10.428 2°38.126 255.3 14 254 16.2
2007-07-03 07:42:36 51°10.422 2°38.096 255.3 14 254 16.3
2007-07-03 07:42:41 51°10.417 2°38.066 255.3 14 254 16.3
2007-07-03 07:42:46 51°10.411 2°38.037 255.3 14 253 16.4
2007-07-03 07:42:51 51°10.406 2°38.007 255 14 254 16.3
2007-07-03 07:42:56 51°10.4 2°37.978 255 14 253 16.4
2007-07-03 07:43:01 51°10.395 2°37.948 255 14 254 16.4
2007-07-03 07:43:06 51°10.389 2°37.918 255 14 254 16.4
2007-07-03 07:43:11 51°10.384 2°37.889 255.4 14 254 16.5
2007-07-03 07:43:16 51°10.379 2°37.859 255.3 14 254 16.4
2007-07-03 07:43:21 51°10.373 2°37.829 255.2 14 254 16.5
2007-07-03 07:43:26 51°10.368 2°37.799 254.9 14.1 253 16.6
2007-07-03 07:43:31 51°10.362 2°37.77 254.9 14.1 254 16.5
2007-07-03 07:43:36 51°10.357 2°37.74 255 14.1 254 16.5
2007-07-03 07:43:41 51°10.351 2°37.71 255.4 14.1 254 16.5
2007-07-03 07:43:46 51°10.346 2°37.68 255.6 14.1 254 16.4
2007-07-03 07:43:51 51°10.341 2°37.65 255.4 14.1 253 16.4
2007-07-03 07:43:56 51°10.335 2°37.62 255.3 14.1 254 16.4
2007-07-03 07:44:01 51°10.329 2°37.591 255.2 14.1 253 16.6
2007-07-03 07:44:06 51°10.324 2°37.561 254.9 14.1 254 16.4
2007-07-03 07:44:11 51°10.319 2°37.531 255 14.1 254 16.4
2007-07-03 07:44:16 51°10.313 2°37.501 255.4 14.1 254 16.4
2007-07-03 07:44:21 51°10.308 2°37.472 255.3 14.1 254 16.4
2007-07-03 07:44:26 51°10.302 2°37.442 255.2 14 254 16.4
2007-07-03 07:44:31 51°10.297 2°37.412 255.1 14 254 16.3
2007-07-03 07:44:36 51°10.291 2°37.382 255 14.1 253 16.4
2007-07-03 07:44:41 51°10.286 2°37.353 255 14 254 16.3
2007-07-03 07:44:46 51°10.28 2°37.323 255.2 14 254 16.3
2007-07-03 07:44:51 51°10.275 2°37.293 255.1 14.1 254 16.2
2007-07-03 07:44:56 51°10.269 2°37.263 255.1 14.1 254 16.3
2007-07-03 07:45:01 51°10.264 2°37.234 255.3 14 254 16.2
2007-07-03 07:45:06 51°10.258 2°37.204 255.1 14 253 16.1
2007-07-03 07:45:11 51°10.253 2°37.174 255 14.1 254 16.2
2007-07-03 07:45:16 51°10.247 2°37.144 255.2 14 254 16.3
2007-07-03 07:45:21 51°10.242 2°37.115 255.2 14 254 16.4
2007-07-03 07:45:26 51°10.236 2°37.085 255.1 14.1 254 16.5
2007-07-03 07:45:31 51°10.231 2°37.055 255 14 253 16.3
2007-07-03 07:45:36 51°10.225 2°37.025 255.1 14.1 254 16.4
2007-07-03 07:45:41 51°10.22 2°36.996 255.3 14.1 254 16.3
2007-07-03 07:45:46 51°10.215 2°36.966 255.4 14.1 254 16.4
2007-07-03 07:45:51 51°10.209 2°36.936 255.4 14.1 253 16.3
2007-07-03 07:45:56 51°10.204 2°36.906 255.2 14.1 254 16.2
2007-07-03 07:46:01 51°10.198 2°36.876 255 14.1 253 16.3
2007-07-03 07:46:06 51°10.192 2°36.846 254.7 14.1 254 16.4
2007-07-03 07:46:11 51°10.187 2°36.817 255 14.1 253 16.3
2007-07-03 07:46:16 51°10.181 2°36.787 255 14.1 254 16.4
2007-07-03 07:46:21 51°10.176 2°36.757 255 14.1 254 16.4
2007-07-03 07:46:26 51°10.17 2°36.727 255.2 14.1 254 16.4
2007-07-03 07:46:31 51°10.165 2°36.697 255.3 14 253 16.3
2007-07-03 07:46:36 51°10.16 2°36.668 255.3 14.1 254 16.3
2007-07-03 07:46:41 51°10.154 2°36.638 255.2 14.1 254 16.5
2007-07-03 07:46:46 51°10.148 2°36.608 255 14.1 254 16.2
2007-07-03 07:46:51 51°10.143 2°36.578 255.1 14.1 254 16.2
2007-07-03 07:46:56 51°10.137 2°36.549 255.2 14.1 254 16.4
2007-07-03 07:47:01 51°10.132 2°36.519 255.1 14.1 254 16.5
2007-07-03 07:47:06 51°10.127 2°36.489 255.3 14.1 254 16.4
2007-07-03 07:47:11 51°10.122 2°36.459 255.3 14.1 255 16.1
2007-07-03 07:47:16 51°10.118 2°36.428 257.8 14.1 259 16.3
2007-07-03 07:47:21 51°10.114 2°36.398 260.6 14.1 260 16.1
2007-07-03 07:47:26 51°10.111 2°36.367 262.1 14.1 262 16.2
2007-07-03 07:47:31 51°10.109 2°36.336 263.8 14 262 16
2007-07-03 07:47:36 51°10.106 2°36.305 264.5 14.1 263 16
2007-07-03 07:47:41 51°10.104 2°36.274 265.4 14.1 264 16
2007-07-03 07:47:46 51°10.102 2°36.244 266.1 14.1 264 15.9
2007-07-03 07:47:51 51°10.102 2°36.213 267.8 14 269 15.9
2007-07-03 07:47:56 51°10.102 2°36.182 271.5 14 270 15.6
2007-07-03 07:48:01 51°10.103 2°36.151 274.1 13.9 274 15.4
2007-07-03 07:48:06 51°10.105 2°36.12 276.3 14 275 15.4
2007-07-03 07:48:11 51°10.109 2°36.09 280.3 13.9 281 15.1
2007-07-03 07:48:16 51°10.113 2°36.061 285.1 13.8 284 14.8
2007-07-03 07:48:21 51°10.119 2°36.032 288.7 13.7 288 14.3
2007-07-03 07:48:26 51°10.126 2°36.004 293.3 13.7 291 13.9
2007-07-03 07:48:31 51°10.133 2°35.976 296.6 13.7 293 13.5
2007-07-03 07:48:36 51°10.142 2°35.949 299.3 13.6 296 12.8
2007-07-03 07:48:41 51°10.15 2°35.922 301.3 13.6 298 12.6
2007-07-03 07:48:46 51°10.161 2°35.898 305.4 13.4 304 11.6
2007-07-03 07:48:51 51°10.171 2°35.873 309 13.4 304 10.5
2007-07-03 07:48:56 51°10.182 2°35.85 311.1 13.2 308 10.4
2007-07-03 07:49:01 51°10.195 2°35.829 314.4 13.1 312 9.9
2007-07-03 07:49:06 51°10.208 2°35.809 319.2 12.9 317 9.3
2007-07-03 07:49:11 51°10.221 2°35.791 322.5 12.8 319 9.2
2007-07-03 07:49:16 51°10.236 2°35.775 326.3 12.7 326 9.5
2007-07-03 07:49:21 51°10.251 2°35.76 331.3 12.7 327 9.2
2007-07-03 07:49:26 51°10.266 2°35.746 334.6 12.7 331 9.4
2007-07-03 07:49:31 51°10.282 2°35.734 337.6 12.6 335 9.4
2007-07-03 07:49:37 51°10.302 2°35.725 343.4 12.6 343 9.4
2007-07-03 07:49:41 51°10.315 2°35.718 348.5 12.6 343 9.3
2007-07-03 07:49:46 51°10.332 2°35.712 351.2 12.5 347 9.6
2007-07-03 07:49:51 51°10.349 2°35.706 353.4 12.5 349 9.6
2007-07-03 07:49:56 51°10.367 2°35.703 356.1 12.5 354 9.8
2007-07-03 07:50:01 51°10.384 2°35.702 0.5 12.5 357 9.6
2007-07-03 07:50:06 51°10.401 2°35.702 3.7 12.4 -999 9.7
2007-07-03 07:50:11 51°10.418 2°35.705 7.4 12.2 6 9.7
2007-07-03 07:50:16 51°10.435 2°35.709 11.7 12.1 10 9.5
2007-07-03 07:50:21 51°10.451 2°35.716 16.8 12.1 14 9.4
2007-07-03 07:50:26 51°10.467 2°35.723 19.5 12 17 9.3
2007-07-03 07:50:31 51°10.483 2°35.732 22.6 12 18 9.2
2007-07-03 07:50:36 51°10.498 2°35.742 24.7 12 24 9.1
2007-07-03 07:50:41 51°10.513 2°35.753 28 12 24 9.3
2007-07-03 07:50:46 51°10.528 2°35.765 30 12 28 9.2
2007-07-03 07:50:51 51°10.543 2°35.777 32.1 12 26 9.2
2007-07-03 07:50:56 51°10.557 2°35.79 33.2 12 31 9.3
2007-07-03 07:51:01 51°10.572 2°35.803 34.1 12 29 9
2007-07-03 07:51:06 51°10.586 2°35.817 35.4 12.2 31 9.1
2007-07-03 07:51:11 51°10.601 2°35.831 35.7 12.1 31 9.3
2007-07-03 07:51:16 51°10.615 2°35.845 35.7 12 32 9.3
2007-07-03 07:51:21 51°10.63 2°35.858 36.1 12.1 30 9.3
2007-07-03 07:51:26 51°10.644 2°35.872 36.4 12.1 32 9.2
2007-07-03 07:51:31 51°10.658 2°35.886 35.9 12.2 32 9.5
2007-07-03 07:51:36 51°10.673 2°35.9 36.6 12.1 31 9.4
2007-07-03 07:51:41 51°10.687 2°35.914 36.4 12.1 32 9.3
2007-07-03 07:51:46 51°10.701 2°35.928 36.6 12.1 31 9.2
2007-07-03 07:51:51 51°10.716 2°35.941 35.9 12.1 32 9.3
2007-07-03 07:51:56 51°10.731 2°35.955 35.9 12.2 29 9.4
2007-07-03 07:52:01 51°10.745 2°35.969 35.2 12.1 31 9.4
2007-07-03 07:52:06 51°10.76 2°35.982 35.3 12.2 29 9.4
2007-07-03 07:52:11 51°10.774 2°35.995 34.8 12.2 31 9.3
2007-07-03 07:52:16 51°10.789 2°36.008 34.9 12.2 28 9.5
2007-07-03 07:52:21 51°10.804 2°36.022 34.5 12.2 31 9.4
2007-07-03 07:52:26 51°10.818 2°36.035 34.8 12.2 29 9.5
2007-07-03 07:52:31 51°10.833 2°36.049 35.4 12.2 31 9.4
2007-07-03 07:52:36 51°10.847 2°36.063 35.9 12.2 32 9.4
2007-07-03 07:52:41 51°10.862 2°36.076 36.7 12.2 30 9.5
2007-07-03 07:52:46 51°10.876 2°36.091 36.7 12.1 33 9.6
2007-07-03 07:52:51 51°10.89 2°36.104 36.5 12.1 31 9.6
2007-07-03 07:52:56 51°10.905 2°36.119 36.6 12.1 31 9.8
2007-07-03 07:53:01 51°10.919 2°36.131 36.1 12.2 29 9.9
2007-07-03 07:53:06 51°10.934 2°36.146 35.9 12.1 32 9.8
2007-07-03 07:53:11 51°10.948 2°36.159 35.7 12.2 29 9.9
2007-07-03 07:53:16 51°10.963 2°36.172 35.4 12.1 30 9.9
2007-07-03 07:53:21 51°10.977 2°36.186 34.6 12.1 30 9.7
2007-07-03 07:53:26 51°10.992 2°36.199 35.3 12.1 29 9.7
2007-07-03 07:53:31 51°11.006 2°36.213 35.7 12.1 31 10
2007-07-03 07:53:36 51°11.021 2°36.226 35.4 12.2 32 9.9
2007-07-03 07:53:41 51°11.035 2°36.24 36.2 12.1 32 10
2007-07-03 07:53:46 51°11.05 2°36.254 36.2 12.1 31 9.9
2007-07-03 07:53:51 51°11.064 2°36.268 36.7 12.1 31 9.9